createdAt,value
2023-01-29T00:01:53.218Z,3.40
2023-01-29T00:05:54.353Z,3.40
2023-01-29T00:09:55.424Z,3.50
2023-01-29T00:13:56.860Z,3.60
2023-01-29T00:17:58.019Z,3.60
2023-01-29T00:21:59.083Z,3.70
2023-01-29T00:26:00.226Z,3.60
2023-01-29T00:30:13.728Z,3.70
2023-01-29T00:34:14.923Z,3.60
2023-01-29T00:38:16.058Z,3.40
2023-01-29T00:42:35.872Z,3.20
2023-01-29T00:46:37.076Z,3.30
2023-01-29T00:50:38.200Z,3.30
2023-01-29T00:54:39.371Z,3.20
2023-01-29T00:58:40.542Z,3.30
2023-01-29T01:03:01.003Z,3.40
2023-01-29T01:07:02.149Z,3.50
2023-01-29T01:11:05.534Z,3.30
2023-01-29T01:15:07.268Z,3.50
2023-01-29T01:19:09.369Z,3.60
2023-01-29T01:23:10.549Z,3.40
2023-01-29T01:27:12.414Z,3.50
2023-01-29T01:31:13.732Z,3.50
2023-01-29T01:35:15.436Z,3.50
2023-01-29T01:39:16.577Z,3.50
2023-01-29T01:43:17.744Z,3.50
2023-01-29T01:47:22.711Z,3.50
2023-01-29T01:51:25.874Z,3.50
2023-01-29T01:55:29.579Z,3.70
2023-01-29T01:59:33.215Z,3.60
2023-01-29T02:03:56.916Z,3.50
2023-01-29T02:08:17.731Z,3.60
2023-01-29T02:12:20.187Z,3.60
2023-01-29T02:16:22.169Z,3.60
2023-01-29T02:20:26.611Z,3.60
2023-01-29T02:24:49.877Z,3.70
2023-01-29T02:29:05.759Z,3.50
2023-01-29T02:33:21.238Z,3.40
2023-01-29T02:37:31.064Z,3.40
2023-01-29T02:41:36.022Z,3.40
2023-01-29T02:45:59.063Z,3.40
2023-01-29T02:50:19.550Z,3.20
2023-01-29T02:54:24.582Z,3.30
2023-01-29T02:58:32.708Z,3.20
2023-01-29T03:02:46.421Z,3.20
2023-01-29T03:06:52.483Z,3.20
2023-01-29T03:10:57.435Z,3.20
2023-01-29T03:15:11.740Z,3.30
2023-01-29T03:19:19.721Z,3.30
2023-01-29T03:23:25.877Z,3.40
2023-01-29T03:27:49.665Z,3.40
2023-01-29T03:32:03.224Z,3.50
2023-01-29T03:36:20.498Z,3.50
2023-01-29T03:40:21.759Z,3.30
2023-01-29T03:44:26.721Z,3.30
2023-01-29T03:48:37.596Z,3.30
2023-01-29T03:52:51.834Z,3.50
2023-01-29T03:57:14.047Z,3.60
2023-01-29T04:01:21.899Z,3.30
2023-01-29T04:05:26.779Z,3.00
2023-01-29T04:09:31.674Z,3.10
2023-01-29T04:13:33.628Z,3.40
2023-01-29T04:17:38.595Z,3.50
2023-01-29T04:21:40.840Z,3.40
2023-01-29T04:25:48.931Z,3.30
2023-01-29T04:30:08.729Z,3.40
2023-01-29T04:34:33.172Z,3.40
2023-01-29T04:38:47.292Z,3.40
2023-01-29T04:42:55.266Z,3.40
2023-01-29T04:47:21.860Z,3.30
2023-01-29T04:51:32.744Z,3.20
2023-01-29T04:55:52.483Z,3.10
2023-01-29T05:00:00.361Z,3.00
2023-01-29T05:04:08.323Z,3.00
2023-01-29T05:08:12.677Z,3.00
2023-01-29T05:12:15.934Z,3.00
2023-01-29T05:16:30.042Z,3.00
2023-01-29T05:20:33.488Z,3.10
2023-01-29T05:24:36.679Z,3.20
2023-01-29T05:28:37.858Z,3.30
2023-01-29T05:32:39.217Z,3.30
2023-01-29T05:36:40.399Z,3.20
2023-01-29T05:40:41.471Z,3.20
2023-01-29T05:44:42.731Z,3.20
2023-01-29T05:51:09.045Z,3.20
2023-01-29T05:55:10.320Z,3.30
2023-01-29T05:59:11.487Z,3.30
2023-01-29T06:03:12.724Z,3.20
2023-01-29T06:07:13.930Z,3.10
2023-01-29T06:11:17.491Z,3.20
2023-01-29T06:15:19.086Z,3.10
2023-01-29T06:19:20.363Z,3.20
2023-01-29T06:23:21.651Z,3.30
2023-01-29T06:27:22.814Z,3.30
2023-01-29T06:31:37.972Z,3.20
2023-01-29T06:35:27.694Z,3.20
2023-01-29T06:39:28.883Z,3.10
2023-01-29T06:43:30.080Z,3.20
2023-01-29T06:47:31.256Z,3.20
2023-01-29T07:00:09.299Z,3.10
2023-01-29T07:04:10.884Z,3.20
2023-01-29T07:08:12.058Z,3.20
2023-01-29T07:12:13.249Z,3.30
2023-01-29T07:16:14.467Z,3.20
2023-01-29T07:20:16.315Z,3.20
2023-01-29T07:24:18.508Z,3.10
2023-01-29T07:28:20.043Z,3.10
2023-01-29T07:32:21.248Z,3.10
2023-01-29T07:36:23.504Z,3.20
2023-01-29T07:40:24.681Z,3.30
2023-01-29T07:44:26.078Z,3.30
2023-01-29T07:48:27.278Z,3.20
2023-01-29T07:52:30.544Z,3.30
2023-01-29T07:56:31.708Z,3.30
2023-01-29T08:00:32.884Z,3.30
2023-01-29T08:04:34.046Z,3.30
2023-01-29T08:08:35.297Z,3.60
2023-01-29T08:12:36.342Z,3.70
2023-01-29T08:16:37.569Z,3.80
2023-01-29T08:20:38.784Z,3.80
2023-01-29T08:24:53.415Z,4.20
2023-01-29T08:28:43.037Z,5.50
2023-01-29T08:32:44.207Z,5.40
2023-01-29T08:36:46.944Z,5.30
2023-01-29T08:40:49.405Z,5.20
2023-01-29T08:44:50.572Z,5.40
2023-01-29T08:48:51.717Z,5.50
2023-01-29T08:52:58.613Z,5.20
2023-01-29T08:56:59.777Z,5.50
2023-01-29T09:01:09.558Z,5.60
2023-01-29T09:05:10.716Z,5.70
2023-01-29T09:09:12.201Z,5.40
2023-01-29T09:13:13.373Z,5.20
2023-01-29T09:17:14.723Z,5.00
2023-01-29T09:21:16.268Z,4.80
2023-01-29T09:25:17.933Z,4.70
2023-01-29T09:29:19.232Z,4.70
2023-01-29T09:33:20.509Z,4.70
2023-01-29T09:37:22.460Z,4.10
2023-01-29T09:41:36.547Z,4.00
2023-01-29T09:45:41.550Z,3.90
2023-01-29T09:49:49.533Z,3.50
2023-01-29T09:54:04.285Z,3.70
2023-01-29T09:58:14.999Z,4.00
2023-01-29T10:02:29.302Z,4.20
2023-01-29T10:06:57.421Z,4.30
2023-01-29T10:11:17.296Z,4.30
2023-01-29T10:15:54.629Z,4.20
2023-01-29T10:20:02.847Z,4.00
2023-01-29T10:24:17.034Z,4.20
2023-01-29T10:28:21.996Z,4.50
2023-01-29T10:32:26.174Z,4.70
2023-01-29T10:36:37.584Z,4.80
2023-01-29T10:40:42.533Z,4.70
2023-01-29T10:45:08.645Z,4.70
2023-01-29T10:49:36.301Z,4.70
2023-01-29T10:54:01.852Z,4.80
2023-01-29T10:58:19.682Z,4.60
2023-01-29T11:02:21.955Z,4.90
2023-01-29T11:06:32.135Z,5.10
2023-01-29T11:10:37.174Z,5.30
2023-01-29T11:14:56.952Z,5.50
2023-01-29T11:19:00.514Z,5.80
2023-01-29T11:23:01.876Z,6.00
2023-01-29T11:27:06.840Z,6.10
2023-01-29T11:31:26.411Z,6.10
2023-01-29T11:35:29.555Z,5.90
2023-01-29T11:39:31.824Z,6.00
2023-01-29T11:43:33.274Z,6.30
2023-01-29T11:47:34.421Z,6.60
2023-01-29T11:51:38.488Z,6.50
2023-01-29T11:55:50.594Z,6.50
2023-01-29T11:59:50.759Z,6.40
2023-01-29T12:03:53.696Z,6.20
2023-01-29T12:08:01.575Z,6.00
2023-01-29T12:12:18.643Z,5.90
2023-01-29T12:16:35.928Z,6.00
2023-01-29T12:20:40.841Z,6.20
2023-01-29T12:24:58.096Z,6.10
2023-01-29T12:29:18.153Z,6.40
2023-01-29T12:33:35.782Z,6.40
2023-01-29T12:37:50.024Z,6.60
2023-01-29T12:41:58.057Z,6.60
2023-01-29T12:46:02.696Z,7.00
2023-01-29T12:50:23.069Z,6.90
2023-01-29T12:54:28.042Z,6.70
2023-01-29T12:58:36.006Z,6.70
2023-01-29T13:02:49.855Z,7.00
2023-01-29T13:06:55.017Z,6.90
2023-01-29T13:11:00.305Z,6.90
2023-01-29T13:15:22.516Z,6.70
2023-01-29T13:19:30.083Z,6.70
2023-01-29T13:23:41.329Z,6.40
2023-01-29T13:27:45.224Z,6.20
2023-01-29T13:31:49.258Z,6.00
2023-01-29T13:35:54.143Z,5.90
2023-01-29T13:39:57.369Z,5.80
2023-01-29T13:43:58.800Z,5.80
2023-01-29T13:48:32.053Z,6.10
2023-01-29T13:52:43.719Z,6.20
2023-01-29T13:56:58.558Z,6.20
2023-01-29T14:01:00.636Z,6.20
2023-01-29T14:05:33.084Z,6.80
2023-01-29T14:09:38.046Z,8.10
2023-01-29T14:13:41.314Z,7.70
2023-01-29T14:18:07.351Z,7.40
2023-01-29T14:22:12.587Z,8.00
2023-01-29T14:26:32.450Z,9.10
2023-01-29T14:30:37.395Z,8.10
2023-01-29T14:34:48.211Z,7.40
2023-01-29T14:38:53.766Z,6.90
2023-01-29T14:42:58.832Z,6.70
2023-01-29T14:46:59.984Z,6.30
2023-01-29T14:51:09.602Z,6.20
2023-01-29T14:55:31.472Z,6.10
2023-01-29T14:59:36.720Z,6.00
2023-01-29T15:03:49.097Z,5.70
2023-01-29T15:08:00.179Z,5.30
2023-01-29T15:12:31.232Z,5.50
2023-01-29T15:16:56.768Z,5.40
2023-01-29T15:21:04.911Z,5.30
2023-01-29T15:25:15.272Z,5.00
2023-01-29T15:29:25.476Z,5.00
2023-01-29T15:33:27.827Z,5.00
2023-01-29T15:37:32.452Z,4.80
2023-01-29T15:41:33.576Z,4.80
2023-01-29T15:45:36.632Z,4.60
2023-01-29T15:49:39.576Z,4.80
2023-01-29T15:53:44.293Z,4.60
2023-01-29T15:57:45.446Z,4.60
2023-01-29T16:01:46.678Z,4.50
2023-01-29T16:05:48.227Z,4.60
2023-01-29T16:09:52.118Z,4.60
2023-01-29T16:13:53.588Z,4.50
2023-01-29T16:17:55.561Z,4.40
2023-01-29T16:22:03.061Z,4.20
2023-01-29T16:26:10.558Z,4.30
2023-01-29T16:30:16.929Z,4.40
2023-01-29T16:34:27.913Z,4.40
2023-01-29T16:38:34.400Z,4.20
2023-01-29T16:42:37.059Z,4.00
2023-01-29T16:46:47.232Z,3.90
2023-01-29T16:50:55.108Z,3.80
2023-01-29T16:54:52.212Z,3.70
2023-01-29T16:58:54.263Z,3.80
2023-01-29T17:03:02.319Z,3.80
2023-01-29T17:07:03.496Z,3.80
2023-01-29T17:11:04.869Z,3.70
2023-01-29T17:15:26.399Z,3.60
2023-01-29T17:19:29.453Z,3.50
2023-01-29T17:23:30.585Z,3.40
2023-01-29T17:27:31.772Z,3.50
2023-01-29T17:31:32.977Z,3.50
2023-01-29T17:35:34.119Z,3.40
2023-01-29T17:39:36.011Z,3.40
2023-01-29T17:43:37.285Z,3.30
2023-01-29T17:47:38.429Z,3.40
2023-01-29T17:51:39.992Z,3.40
2023-01-29T17:55:41.402Z,3.40
2023-01-29T17:59:44.217Z,3.20
2023-01-29T18:03:45.524Z,3.00
2023-01-29T18:07:47.547Z,3.10
2023-01-29T18:11:50.262Z,3.00
2023-01-29T18:15:51.730Z,3.00
2023-01-29T18:19:54.810Z,3.00
2023-01-29T18:23:56.234Z,3.00
2023-01-29T18:27:57.413Z,3.10
2023-01-29T18:31:58.645Z,3.00
2023-01-29T18:36:00.110Z,3.00
2023-01-29T18:40:01.397Z,3.10
2023-01-29T18:44:03.647Z,2.90
2023-01-29T18:48:05.086Z,2.80
2023-01-29T18:52:07.033Z,2.80
2023-01-29T18:56:09.889Z,2.90
2023-01-29T19:00:11.848Z,2.70
2023-01-29T19:04:13.009Z,2.70
2023-01-29T19:08:14.191Z,2.70
2023-01-29T19:12:16.479Z,2.70
2023-01-29T19:16:17.816Z,2.70
2023-01-29T19:20:19.767Z,2.70
2023-01-29T19:24:21.703Z,2.70
2023-01-29T19:28:22.891Z,2.70
2023-01-29T19:32:28.122Z,2.70
2023-01-29T19:36:32.901Z,2.80
2023-01-29T19:40:35.234Z,2.60
2023-01-29T19:44:38.530Z,2.60
2023-01-29T19:48:40.291Z,2.60
2023-01-29T19:52:51.153Z,2.60
2023-01-29T19:56:45.102Z,2.60
2023-01-29T20:00:50.570Z,2.60
2023-01-29T20:04:52.242Z,2.70
2023-01-29T20:08:54.002Z,2.60
2023-01-29T20:12:55.867Z,2.60
2023-01-29T20:16:57.306Z,2.60
2023-01-29T20:20:59.268Z,2.70
2023-01-29T20:25:00.622Z,2.60
2023-01-29T20:33:09.734Z,2.60
2023-01-29T20:37:10.879Z,2.50
2023-01-29T20:41:16.183Z,2.50
2023-01-29T20:45:17.964Z,2.60
2023-01-29T20:49:19.500Z,2.50
2023-01-29T20:53:20.600Z,2.40
2023-01-29T20:57:21.967Z,2.50
2023-01-29T21:01:23.157Z,2.50
2023-01-29T21:05:24.422Z,2.50
2023-01-29T21:09:25.672Z,2.40
2023-01-29T21:13:27.632Z,2.30
2023-01-29T21:17:28.853Z,2.50
2023-01-29T21:21:30.123Z,2.50
2023-01-29T21:25:31.371Z,2.50
2023-01-29T21:29:32.694Z,2.70
2023-01-29T21:33:34.393Z,2.60
2023-01-29T21:37:37.248Z,2.80
2023-01-29T21:41:56.957Z,2.80
2023-01-29T21:46:00.386Z,3.00
2023-01-29T21:54:09.569Z,3.10
2023-01-29T21:58:13.438Z,3.10
2023-01-29T22:02:14.948Z,3.10
2023-01-29T22:06:16.241Z,3.10
2023-01-29T22:10:18.893Z,3.10
2023-01-29T22:14:20.834Z,3.10
2023-01-29T22:18:22.121Z,3.00
2023-01-29T22:22:23.979Z,3.10
2023-01-29T22:26:25.157Z,3.00
2023-01-29T22:30:26.933Z,3.00
2023-01-29T22:34:28.044Z,2.80
2023-01-29T22:38:30.961Z,2.90
2023-01-29T22:42:32.113Z,3.00
2023-01-29T22:46:33.351Z,2.80
2023-01-29T22:50:34.667Z,2.70
2023-01-29T22:54:40.363Z,2.80
2023-01-29T22:58:41.557Z,2.80
2023-01-29T23:02:42.678Z,2.90
2023-01-29T23:06:43.835Z,2.90
2023-01-29T23:10:45.307Z,3.00
2023-01-29T23:14:46.486Z,3.00
2023-01-29T23:18:53.683Z,3.00
2023-01-29T23:22:55.153Z,3.10
2023-01-29T23:27:14.611Z,3.10
2023-01-29T23:31:16.011Z,3.20
2023-01-29T23:35:17.212Z,3.20
2023-01-29T23:39:19.727Z,3.20
2023-01-29T23:43:20.868Z,3.10
2023-01-29T23:47:22.047Z,3.20
2023-01-29T23:51:23.427Z,3.20
2023-01-29T23:55:24.604Z,3.20
2023-01-29T23:59:28.831Z,3.20
